sensor_id;sensor_type;location;lat;lon;timestamp;pressure;altitude;pressure_sealevel;temperature;humidity
45255;BME280;30989;52.078;21.014;2023-02-08T00:00:15;163381.34;;;-1.41;100.00
45255;BME280;30989;52.078;21.014;2023-02-08T00:02:40;163376.03;;;-1.43;100.00
45255;BME280;30989;52.078;21.014;2023-02-08T00:05:06;163385.31;;;-1.39;100.00
45255;BME280;30989;52.078;21.014;2023-02-08T00:07:31;163376.03;;;-1.43;100.00
45255;BME280;30989;52.078;21.014;2023-02-08T00:09:57;163377.34;;;-1.42;100.00
45255;BME280;30989;52.078;21.014;2023-02-08T00:12:22;163374.69;;;-1.43;100.00
45255;BME280;30989;52.078;21.014;2023-02-08T00:14:48;163377.34;;;-1.42;100.00
45255;BME280;30989;52.078;21.014;2023-02-08T00:17:13;163381.34;;;-1.41;100.00
45255;BME280;30989;52.078;21.014;2023-02-08T00:19:39;163373.38;;;-1.44;100.00
45255;BME280;30989;52.078;21.014;2023-02-08T00:22:04;163373.38;;;-1.44;100.00
45255;BME280;30989;52.078;21.014;2023-02-08T00:24:30;163365.41;;;-1.47;100.00
45255;BME280;30989;52.078;21.014;2023-02-08T00:26:55;163366.72;;;-1.46;100.00
45255;BME280;30989;52.078;21.014;2023-02-08T00:29:21;163353.44;;;-1.51;100.00
45255;BME280;30989;52.078;21.014;2023-02-08T00:31:46;163361.41;;;-1.48;100.00
45255;BME280;30989;52.078;21.014;2023-02-08T00:34:11;163349.47;;;-1.53;100.00
45255;BME280;30989;52.078;21.014;2023-02-08T00:36:37;163349.47;;;-1.53;100.00
45255;BME280;30989;52.078;21.014;2023-02-08T00:39:02;163350.78;;;-1.52;100.00
45255;BME280;30989;52.078;21.014;2023-02-08T00:41:28;163357.44;;;-1.50;100.00
45255;BME280;30989;52.078;21.014;2023-02-08T00:43:53;163342.81;;;-1.55;100.00
45255;BME280;30989;52.078;21.014;2023-02-08T00:46:19;163352.13;;;-1.52;100.00
45255;BME280;30989;52.078;21.014;2023-02-08T00:48:45;163345.47;;;-1.54;100.00
45255;BME280;30989;52.078;21.014;2023-02-08T00:51:11;163348.13;;;-1.53;100.00
45255;BME280;30989;52.078;21.014;2023-02-08T00:53:41;163348.13;;;-1.53;100.00
45255;BME280;30989;52.078;21.014;2023-02-08T00:56:08;163357.44;;;-1.50;100.00
45255;BME280;30989;52.078;21.014;2023-02-08T00:58:35;163353.44;;;-1.51;100.00
45255;BME280;30989;52.078;21.014;2023-02-08T01:01:01;163353.44;;;-1.51;100.00
45255;BME280;30989;52.078;21.014;2023-02-08T01:03:32;163350.78;;;-1.52;100.00
45255;BME280;30989;52.078;21.014;2023-02-08T01:06:03;163345.47;;;-1.54;100.00
45255;BME280;30989;52.078;21.014;2023-02-08T01:08:31;163346.78;;;-1.54;100.00
45255;BME280;30989;52.078;21.014;2023-02-08T01:11:08;163353.44;;;-1.51;100.00
45255;BME280;30989;52.078;21.014;2023-02-08T01:13:35;163353.44;;;-1.51;100.00
45255;BME280;30989;52.078;21.014;2023-02-08T01:16:09;163349.47;;;-1.53;100.00
45255;BME280;30989;52.078;21.014;2023-02-08T01:18:36;163358.75;;;-1.49;100.00
45255;BME280;30989;52.078;21.014;2023-02-08T01:21:10;163354.78;;;-1.51;100.00
45255;BME280;30989;52.078;21.014;2023-02-08T01:23:36;163352.13;;;-1.52;100.00
45255;BME280;30989;52.078;21.014;2023-02-08T01:26:02;163340.16;;;-1.56;100.00
45255;BME280;30989;52.078;21.014;2023-02-08T01:28:28;163348.13;;;-1.53;100.00
45255;BME280;30989;52.078;21.014;2023-02-08T01:30:53;163360.09;;;-1.49;100.00
45255;BME280;30989;52.078;21.014;2023-02-08T01:33:19;163356.09;;;-1.50;100.00
45255;BME280;30989;52.078;21.014;2023-02-08T01:35:44;163356.09;;;-1.50;100.00
45255;BME280;30989;52.078;21.014;2023-02-08T01:38:10;163361.41;;;-1.48;100.00
45255;BME280;30989;52.078;21.014;2023-02-08T01:40:35;163352.13;;;-1.52;100.00
45255;BME280;30989;52.078;21.014;2023-02-08T01:43:00;163360.09;;;-1.49;100.00
45255;BME280;30989;52.078;21.014;2023-02-08T01:45:29;163350.78;;;-1.52;100.00
45255;BME280;30989;52.078;21.014;2023-02-08T01:48:03;163340.16;;;-1.56;100.00
45255;BME280;30989;52.078;21.014;2023-02-08T01:50:40;163338.84;;;-1.57;100.00
45255;BME280;30989;52.078;21.014;2023-02-08T01:53:07;163321.56;;;-1.64;100.00
45255;BME280;30989;52.078;21.014;2023-02-08T01:55:36;163340.16;;;-1.56;100.00
45255;BME280;30989;52.078;21.014;2023-02-08T01:58:06;163334.84;;;-1.58;100.00
45255;BME280;30989;52.078;21.014;2023-02-08T02:00:33;163332.19;;;-1.59;100.00
45255;BME280;30989;52.078;21.014;2023-02-08T02:02:59;163334.84;;;-1.58;100.00
45255;BME280;30989;52.078;21.014;2023-02-08T02:05:29;163332.19;;;-1.59;100.00
45255;BME280;30989;52.078;21.014;2023-02-08T02:07:58;163330.88;;;-1.60;100.00
45255;BME280;30989;52.078;21.014;2023-02-08T02:10:31;163333.53;;;-1.59;100.00
45255;BME280;30989;52.078;21.014;2023-02-08T02:13:02;163334.84;;;-1.58;100.00
45255;BME280;30989;52.078;21.014;2023-02-08T02:15:28;163334.84;;;-1.58;100.00
45255;BME280;30989;52.078;21.014;2023-02-08T02:17:54;163329.53;;;-1.60;100.00
45255;BME280;30989;52.078;21.014;2023-02-08T02:20:38;163325.56;;;-1.62;100.00
45255;BME280;30989;52.078;21.014;2023-02-08T02:34:48;163326.88;;;-1.62;100.00
45255;BME280;30989;52.078;21.014;2023-02-08T02:37:50;163329.53;;;-1.60;100.00
45255;BME280;30989;52.078;21.014;2023-02-08T02:43:11;163308.28;;;-1.69;100.00
45255;BME280;30989;52.078;21.014;2023-02-08T02:49:09;163320.25;;;-1.64;100.00
45255;BME280;30989;52.078;21.014;2023-02-08T02:56:40;163302.97;;;-1.71;100.00
45255;BME280;30989;52.078;21.014;2023-02-08T02:59:09;163300.31;;;-1.72;100.00
45255;BME280;30989;52.078;21.014;2023-02-08T03:01:36;163288.38;;;-1.76;100.00
45255;BME280;30989;52.078;21.014;2023-02-08T03:15:36;163289.69;;;-1.76;100.00
45255;BME280;30989;52.078;21.014;2023-02-08T03:18:34;163292.34;;;-1.75;100.00
45255;BME280;30989;52.078;21.014;2023-02-08T03:24:01;163265.78;;;-1.85;100.00
45255;BME280;30989;52.078;21.014;2023-02-08T03:26:38;163295.00;;;-1.74;100.00
45255;BME280;30989;52.078;21.014;2023-02-08T03:31:59;163300.31;;;-1.72;100.00
45255;BME280;30989;52.078;21.014;2023-02-08T03:35:10;163281.72;;;-1.79;100.00
45255;BME280;30989;52.078;21.014;2023-02-08T03:37:20;163295.00;;;-1.74;100.00
45255;BME280;30989;52.078;21.014;2023-02-08T03:39:49;163299.00;;;-1.72;100.00
45255;BME280;30989;52.078;21.014;2023-02-08T03:42:19;163301.66;;;-1.71;100.00
45255;BME280;30989;52.078;21.014;2023-02-08T03:44:54;163295.00;;;-1.74;100.00
45255;BME280;30989;52.078;21.014;2023-02-08T03:47:26;163300.31;;;-1.72;100.00
45255;BME280;30989;52.078;21.014;2023-02-08T03:49:54;163289.69;;;-1.76;100.00
45255;BME280;30989;52.078;21.014;2023-02-08T03:52:21;163292.34;;;-1.75;100.00
45255;BME280;30989;52.078;21.014;2023-02-08T03:55:08;163295.00;;;-1.74;100.00
45255;BME280;30989;52.078;21.014;2023-02-08T03:57:51;163284.38;;;-1.78;100.00
45255;BME280;30989;52.078;21.014;2023-02-08T04:00:17;163288.38;;;-1.76;100.00
45255;BME280;30989;52.078;21.014;2023-02-08T04:02:53;163292.34;;;-1.75;100.00
45255;BME280;30989;52.078;21.014;2023-02-08T04:05:20;163277.75;;;-1.80;100.00
45255;BME280;30989;52.078;21.014;2023-02-08T04:07:46;163281.72;;;-1.79;100.00
45255;BME280;30989;52.078;21.014;2023-02-08T04:10:12;163289.69;;;-1.76;100.00
45255;BME280;30989;52.078;21.014;2023-02-08T04:12:38;163281.72;;;-1.79;100.00
45255;BME280;30989;52.078;21.014;2023-02-08T04:15:04;163281.72;;;-1.79;100.00
45255;BME280;30989;52.078;21.014;2023-02-08T04:17:29;163283.06;;;-1.78;100.00
45255;BME280;30989;52.078;21.014;2023-02-08T04:19:55;163281.72;;;-1.79;100.00
45255;BME280;30989;52.078;21.014;2023-02-08T04:22:20;163279.06;;;-1.80;100.00
45255;BME280;30989;52.078;21.014;2023-02-08T04:24:45;163284.38;;;-1.78;100.00
45255;BME280;30989;52.078;21.014;2023-02-08T04:27:11;163296.34;;;-1.73;100.00
45255;BME280;30989;52.078;21.014;2023-02-08T04:29:36;163285.72;;;-1.77;100.00
45255;BME280;30989;52.078;21.014;2023-02-08T04:32:02;163297.66;;;-1.73;100.00
45255;BME280;30989;52.078;21.014;2023-02-08T04:34:28;163302.97;;;-1.71;100.00
45255;BME280;30989;52.078;21.014;2023-02-08T04:36:53;163304.31;;;-1.70;100.00
45255;BME280;30989;52.078;21.014;2023-02-08T04:39:18;163305.63;;;-1.70;100.00
45255;BME280;30989;52.078;21.014;2023-02-08T04:41:44;163313.59;;;-1.67;100.00
45255;BME280;30989;52.078;21.014;2023-02-08T04:44:09;163309.63;;;-1.68;100.00
45255;BME280;30989;52.078;21.014;2023-02-08T04:46:35;163324.22;;;-1.63;100.00
45255;BME280;30989;52.078;21.014;2023-02-08T04:49:00;163329.53;;;-1.60;100.00
45255;BME280;30989;52.078;21.014;2023-02-08T04:51:25;163329.53;;;-1.60;100.00
45255;BME280;30989;52.078;21.014;2023-02-08T04:53:51;163329.53;;;-1.60;100.00
45255;BME280;30989;52.078;21.014;2023-02-08T04:56:16;163312.28;;;-1.67;100.00
45255;BME280;30989;52.078;21.014;2023-02-08T04:58:42;163313.59;;;-1.67;100.00
45255;BME280;30989;52.078;21.014;2023-02-08T05:01:08;163316.25;;;-1.66;100.00
45255;BME280;30989;52.078;21.014;2023-02-08T05:03:35;163318.91;;;-1.65;100.00
45255;BME280;30989;52.078;21.014;2023-02-08T05:06:01;163313.59;;;-1.67;100.00
45255;BME280;30989;52.078;21.014;2023-02-08T05:08:26;163313.59;;;-1.67;100.00
45255;BME280;30989;52.078;21.014;2023-02-08T05:10:52;163313.59;;;-1.67;100.00
45255;BME280;30989;52.078;21.014;2023-02-08T05:13:18;163309.63;;;-1.68;100.00
45255;BME280;30989;52.078;21.014;2023-02-08T05:15:43;163309.63;;;-1.68;100.00
45255;BME280;30989;52.078;21.014;2023-02-08T05:18:08;163273.75;;;-1.82;100.00
45255;BME280;30989;52.078;21.014;2023-02-08T05:20:34;163295.00;;;-1.74;100.00
45255;BME280;30989;52.078;21.014;2023-02-08T05:22:59;163305.63;;;-1.70;100.00
45255;BME280;30989;52.078;21.014;2023-02-08T05:25:25;163300.31;;;-1.72;100.00
45255;BME280;30989;52.078;21.014;2023-02-08T05:27:51;163300.31;;;-1.72;100.00
45255;BME280;30989;52.078;21.014;2023-02-08T05:30:16;163310.94;;;-1.68;100.00
45255;BME280;30989;52.078;21.014;2023-02-08T05:32:42;163309.63;;;-1.68;100.00
45255;BME280;30989;52.078;21.014;2023-02-08T05:35:07;163300.31;;;-1.72;100.00
45255;BME280;30989;52.078;21.014;2023-02-08T05:37:33;163310.94;;;-1.68;100.00
45255;BME280;30989;52.078;21.014;2023-02-08T05:39:58;163312.28;;;-1.67;100.00
45255;BME280;30989;52.078;21.014;2023-02-08T05:42:24;163314.94;;;-1.66;100.00
45255;BME280;30989;52.078;21.014;2023-02-08T05:44:49;163308.28;;;-1.69;100.00
45255;BME280;30989;52.078;21.014;2023-02-08T05:47:15;163300.31;;;-1.72;100.00
45255;BME280;30989;52.078;21.014;2023-02-08T05:49:40;163305.63;;;-1.70;100.00
45255;BME280;30989;52.078;21.014;2023-02-08T05:52:05;163317.59;;;-1.65;100.00
45255;BME280;30989;52.078;21.014;2023-02-08T05:54:31;163314.94;;;-1.66;100.00
45255;BME280;30989;52.078;21.014;2023-02-08T05:56:56;163308.28;;;-1.69;100.00
45255;BME280;30989;52.078;21.014;2023-02-08T05:59:23;163310.94;;;-1.68;100.00
45255;BME280;30989;52.078;21.014;2023-02-08T06:01:48;163309.63;;;-1.68;100.00
45255;BME280;30989;52.078;21.014;2023-02-08T06:04:13;163328.22;;;-1.61;100.00
45255;BME280;30989;52.078;21.014;2023-02-08T06:06:39;163330.88;;;-1.60;100.00
45255;BME280;30989;52.078;21.014;2023-02-08T06:09:04;163317.59;;;-1.65;100.00
45255;BME280;30989;52.078;21.014;2023-02-08T06:11:30;163340.16;;;-1.56;100.00
45255;BME280;30989;52.078;21.014;2023-02-08T06:13:55;163340.16;;;-1.56;100.00
45255;BME280;30989;52.078;21.014;2023-02-08T06:16:21;163356.09;;;-1.50;100.00
45255;BME280;30989;52.078;21.014;2023-02-08T06:18:46;163360.09;;;-1.49;100.00
45255;BME280;30989;52.078;21.014;2023-02-08T06:21:12;163361.41;;;-1.48;100.00
45255;BME280;30989;52.078;21.014;2023-02-08T06:23:37;163366.72;;;-1.46;100.00
45255;BME280;30989;52.078;21.014;2023-02-08T06:26:03;163372.03;;;-1.44;100.00
45255;BME280;30989;52.078;21.014;2023-02-08T06:28:28;163373.38;;;-1.44;100.00
45255;BME280;30989;52.078;21.014;2023-02-08T06:30:54;163378.69;;;-1.42;100.00
45255;BME280;30989;52.078;21.014;2023-02-08T06:33:19;163378.69;;;-1.42;100.00
45255;BME280;30989;52.078;21.014;2023-02-08T06:35:46;163387.97;;;-1.38;100.00
45255;BME280;30989;52.078;21.014;2023-02-08T06:38:12;163397.28;;;-1.35;100.00
45255;BME280;30989;52.078;21.014;2023-02-08T06:40:37;163401.25;;;-1.33;100.00
45255;BME280;30989;52.078;21.014;2023-02-08T06:43:03;163406.56;;;-1.31;100.00
45255;BME280;30989;52.078;21.014;2023-02-08T06:45:28;163406.56;;;-1.31;100.00
45255;BME280;30989;52.078;21.014;2023-02-08T06:47:54;163411.88;;;-1.29;100.00
45255;BME280;30989;52.078;21.014;2023-02-08T06:50:19;163413.22;;;-1.28;100.00
45255;BME280;30989;52.078;21.014;2023-02-08T06:52:44;163421.19;;;-1.25;100.00
45255;BME280;30989;52.078;21.014;2023-02-08T06:55:10;163419.84;;;-1.26;100.00
45255;BME280;30989;52.078;21.014;2023-02-08T06:57:35;163418.53;;;-1.26;100.00
45255;BME280;30989;52.078;21.014;2023-02-08T07:00:02;163423.84;;;-1.24;100.00
45255;BME280;30989;52.078;21.014;2023-02-08T07:02:27;163419.84;;;-1.26;100.00
45255;BME280;30989;52.078;21.014;2023-02-08T07:04:52;163427.81;;;-1.23;100.00
45255;BME280;30989;52.078;21.014;2023-02-08T07:07:18;163430.47;;;-1.22;100.00
45255;BME280;30989;52.078;21.014;2023-02-08T07:09:44;163431.81;;;-1.21;100.00
45255;BME280;30989;52.078;21.014;2023-02-08T07:12:09;163438.44;;;-1.19;100.00
45255;BME280;30989;52.078;21.014;2023-02-08T07:14:38;163441.09;;;-1.18;100.00
45255;BME280;30989;52.078;21.014;2023-02-08T07:17:04;163446.41;;;-1.16;100.00
45255;BME280;30989;52.078;21.014;2023-02-08T07:19:30;163457.06;;;-1.12;100.00
45255;BME280;30989;52.078;21.014;2023-02-08T07:21:55;163462.38;;;-1.10;100.00
45255;BME280;30989;52.078;21.014;2023-02-08T07:24:22;163469.00;;;-1.07;100.00
45255;BME280;30989;52.078;21.014;2023-02-08T07:26:47;163473.00;;;-1.06;100.00
45255;BME280;30989;52.078;21.014;2023-02-08T07:29:13;163488.94;;;-1.00;100.00
45255;BME280;30989;52.078;21.014;2023-02-08T07:31:38;163487.59;;;-1.00;100.00
45255;BME280;30989;52.078;21.014;2023-02-08T07:34:04;163491.59;;;-0.99;100.00
45255;BME280;30989;52.078;21.014;2023-02-08T07:36:29;163486.28;;;-1.01;100.00
45255;BME280;30989;52.078;21.014;2023-02-08T07:38:55;163499.56;;;-0.95;100.00
45255;BME280;30989;52.078;21.014;2023-02-08T07:41:20;163499.56;;;-0.95;100.00
45255;BME280;30989;52.078;21.014;2023-02-08T07:43:46;163507.53;;;-0.92;100.00
45255;BME280;30989;52.078;21.014;2023-02-08T07:46:15;163507.53;;;-0.92;100.00
45255;BME280;30989;52.078;21.014;2023-02-08T07:48:41;163510.19;;;-0.91;100.00
45255;BME280;30989;52.078;21.014;2023-02-08T07:51:08;163512.84;;;-0.90;100.00
45255;BME280;30989;52.078;21.014;2023-02-08T07:53:34;163526.16;;;-0.85;100.00
45255;BME280;30989;52.078;21.014;2023-02-08T07:55:59;163539.44;;;-0.80;100.00
45255;BME280;30989;52.078;21.014;2023-02-08T07:58:25;163548.72;;;-0.77;100.00
45255;BME280;30989;52.078;21.014;2023-02-08T08:00:51;163559.38;;;-0.73;100.00
45255;BME280;30989;52.078;21.014;2023-02-08T08:03:17;163555.38;;;-0.74;100.00
45255;BME280;30989;52.078;21.014;2023-02-08T08:05:42;163571.31;;;-0.68;100.00
45255;BME280;30989;52.078;21.014;2023-02-08T08:08:09;163597.91;;;-0.58;100.00
45255;BME280;30989;52.078;21.014;2023-02-08T08:10:35;163608.53;;;-0.54;100.00
45255;BME280;30989;52.078;21.014;2023-02-08T08:13:01;163624.47;;;-0.48;100.00
45255;BME280;30989;52.078;21.014;2023-02-08T08:15:26;163640.44;;;-0.42;100.00
45255;BME280;30989;52.078;21.014;2023-02-08T08:17:52;163640.44;;;-0.42;100.00
45255;BME280;30989;52.078;21.014;2023-02-08T08:20:18;163653.72;;;-0.37;100.00
45255;BME280;30989;52.078;21.014;2023-02-08T08:22:43;163656.38;;;-0.36;100.00
45255;BME280;30989;52.078;21.014;2023-02-08T08:25:09;163645.75;;;-0.40;100.00
45255;BME280;30989;52.078;21.014;2023-02-08T08:27:35;163675.00;;;-0.28;100.00
45255;BME280;30989;52.078;21.014;2023-02-08T08:30:00;163692.28;;;-0.22;100.00
45255;BME280;30989;52.078;21.014;2023-02-08T08:32:26;163710.88;;;-0.15;100.00
45255;BME280;30989;52.078;21.014;2023-02-08T08:34:52;163713.56;;;-0.14;100.00
45255;BME280;30989;52.078;21.014;2023-02-08T08:37:17;163736.16;;;-0.05;100.00
45255;BME280;30989;52.078;21.014;2023-02-08T08:39:43;163757.47;;;0.03;100.00
45255;BME280;30989;52.078;21.014;2023-02-08T08:42:09;163762.78;;;0.05;100.00
45255;BME280;30989;52.078;21.014;2023-02-08T08:44:34;163772.09;;;0.09;100.00
45255;BME280;30989;52.078;21.014;2023-02-08T08:47:00;163785.41;;;0.14;100.00
45255;BME280;30989;52.078;21.014;2023-02-08T08:49:27;163800.03;;;0.19;100.00
45255;BME280;30989;52.078;21.014;2023-02-08T08:51:53;163802.69;;;0.20;100.00
45255;BME280;30989;52.078;21.014;2023-02-08T08:54:20;163826.63;;;0.29;100.00
45255;BME280;30989;52.078;21.014;2023-02-08T08:56:45;163846.56;;;0.37;100.00
45255;BME280;30989;52.078;21.014;2023-02-08T08:59:11;163869.19;;;0.46;100.00
45255;BME280;30989;52.078;21.014;2023-02-08T09:01:37;163885.16;;;0.52;100.00
45255;BME280;30989;52.078;21.014;2023-02-08T09:04:04;163922.41;;;0.66;100.00
45255;BME280;30989;52.078;21.014;2023-02-08T09:06:29;163950.34;;;0.77;100.00
45255;BME280;30989;52.078;21.014;2023-02-08T09:08:55;163975.59;;;0.86;100.00
45255;BME280;30989;52.078;21.014;2023-02-08T09:11:20;163984.94;;;0.90;100.00
45255;BME280;30989;52.078;21.014;2023-02-08T09:13:46;164020.84;;;1.04;100.00
45255;BME280;30989;52.078;21.014;2023-02-08T09:16:15;164046.13;;;1.13;100.00
45255;BME280;30989;52.078;21.014;2023-02-08T09:18:41;164071.41;;;1.23;100.00
45255;BME280;30989;52.078;21.014;2023-02-08T09:21:11;164075.41;;;1.24;100.00
45255;BME280;30989;52.078;21.014;2023-02-08T09:23:37;164083.41;;;1.27;100.00
45255;BME280;30989;52.078;21.014;2023-02-08T09:26:04;164115.34;;;1.40;100.00
45255;BME280;30989;52.078;21.014;2023-02-08T09:28:30;164098.03;;;1.33;100.00
45255;BME280;30989;52.078;21.014;2023-02-08T09:30:55;164099.38;;;1.34;100.00
45255;BME280;30989;52.078;21.014;2023-02-08T09:33:21;164096.72;;;1.33;100.00
45255;BME280;30989;52.078;21.014;2023-02-08T09:35:47;164103.34;;;1.35;100.00
45255;BME280;30989;52.078;21.014;2023-02-08T09:38:12;164098.03;;;1.33;100.00
45255;BME280;30989;52.078;21.014;2023-02-08T09:41:18;164096.72;;;1.33;100.00
45255;BME280;30989;52.078;21.014;2023-02-08T09:44:09;164112.69;;;1.39;100.00
45255;BME280;30989;52.078;21.014;2023-02-08T09:46:39;164140.63;;;1.49;100.00
45255;BME280;30989;52.078;21.014;2023-02-08T09:49:10;164168.59;;;1.60;100.00
45255;BME280;30989;52.078;21.014;2023-02-08T09:51:50;164179.22;;;1.64;100.00
45255;BME280;30989;52.078;21.014;2023-02-08T09:54:21;164185.88;;;1.67;100.00
45255;BME280;30989;52.078;21.014;2023-02-08T09:56:48;164212.50;;;1.77;100.00
45255;BME280;30989;52.078;21.014;2023-02-08T09:59:34;164212.50;;;1.77;100.00
45255;BME280;30989;52.078;21.014;2023-02-08T10:05:07;164217.84;;;1.79;100.00
45255;BME280;30989;52.078;21.014;2023-02-08T10:07:35;164199.19;;;1.72;100.00
45255;BME280;30989;52.078;21.014;2023-02-08T10:10:04;164175.25;;;1.63;100.00
45255;BME280;30989;52.078;21.014;2023-02-08T10:13:15;164155.28;;;1.55;95.03
45255;BME280;30989;52.078;21.014;2023-02-08T10:15:43;164119.34;;;1.41;96.97
45255;BME280;30989;52.078;21.014;2023-02-08T10:18:45;164111.34;;;1.38;97.17
45255;BME280;30989;52.078;21.014;2023-02-08T10:24:19;164106.03;;;1.36;96.08
45255;BME280;30989;52.078;21.014;2023-02-08T10:27:16;164096.72;;;1.33;95.69
45255;BME280;30989;52.078;21.014;2023-02-08T10:29:53;164068.75;;;1.22;91.97
45255;BME280;30989;52.078;21.014;2023-02-08T10:35:01;164042.13;;;1.12;93.84
45255;BME280;30989;52.078;21.014;2023-02-08T10:37:33;164036.81;;;1.10;86.97
45255;BME280;30989;52.078;21.014;2023-02-08T10:40:13;164002.22;;;0.96;91.86
45255;BME280;30989;52.078;21.014;2023-02-08T10:42:41;164019.53;;;1.03;92.19
45255;BME280;30989;52.078;21.014;2023-02-08T10:45:33;164026.16;;;1.06;93.33
45255;BME280;30989;52.078;21.014;2023-02-08T10:48:04;164023.50;;;1.05;91.25
45255;BME280;30989;52.078;21.014;2023-02-08T10:50:41;164015.53;;;1.02;88.72
45255;BME280;30989;52.078;21.014;2023-02-08T10:53:16;164000.88;;;0.96;90.20
45255;BME280;30989;52.078;21.014;2023-02-08T10:55:44;163984.94;;;0.90;91.89
45255;BME280;30989;52.078;21.014;2023-02-08T10:58:16;163996.91;;;0.94;91.91
45255;BME280;30989;52.078;21.014;2023-02-08T11:00:43;163974.28;;;0.86;91.05
45255;BME280;30989;52.078;21.014;2023-02-08T11:03:24;163990.25;;;0.92;89.24
45255;BME280;30989;52.078;21.014;2023-02-08T11:05:50;163971.63;;;0.85;87.17
45255;BME280;30989;52.078;21.014;2023-02-08T11:08:18;163947.66;;;0.76;88.68
45255;BME280;30989;52.078;21.014;2023-02-08T11:13:19;163949.00;;;0.76;90.95
45255;BME280;30989;52.078;21.014;2023-02-08T11:15:55;163949.00;;;0.76;85.02
45255;BME280;30989;52.078;21.014;2023-02-08T11:18:29;163955.66;;;0.79;88.83
45255;BME280;30989;52.078;21.014;2023-02-08T11:20:59;163994.25;;;0.93;90.56
45255;BME280;30989;52.078;21.014;2023-02-08T11:23:35;164004.88;;;0.98;86.35
45255;BME280;30989;52.078;21.014;2023-02-08T11:28:59;164002.22;;;0.96;88.99
45255;BME280;30989;52.078;21.014;2023-02-08T11:31:25;164012.88;;;1.01;84.49
45255;BME280;30989;52.078;21.014;2023-02-08T11:34:02;164023.50;;;1.05;88.77
45255;BME280;30989;52.078;21.014;2023-02-08T11:36:29;164043.47;;;1.12;88.17
45255;BME280;30989;52.078;21.014;2023-02-08T11:38:56;164046.13;;;1.13;83.62
45255;BME280;30989;52.078;21.014;2023-02-08T11:41:22;164047.47;;;1.14;84.67
45255;BME280;30989;52.078;21.014;2023-02-08T11:44:02;164052.78;;;1.16;85.66
45255;BME280;30989;52.078;21.014;2023-02-08T11:46:32;164066.09;;;1.21;83.84
45255;BME280;30989;52.078;21.014;2023-02-08T11:48:58;164076.75;;;1.25;81.56
45255;BME280;30989;52.078;21.014;2023-02-08T11:51:33;164086.06;;;1.28;85.51
45255;BME280;30989;52.078;21.014;2023-02-08T11:54:00;164098.03;;;1.33;82.80
45255;BME280;30989;52.078;21.014;2023-02-08T11:56:31;164152.59;;;1.54;84.34
45255;BME280;30989;52.078;21.014;2023-02-08T12:01:38;164217.84;;;1.79;82.92
45255;BME280;30989;52.078;21.014;2023-02-08T12:04:07;164223.16;;;1.81;81.21
45255;BME280;30989;52.078;21.014;2023-02-08T12:09:37;164251.13;;;1.91;82.76
45255;BME280;30989;52.078;21.014;2023-02-08T12:22:48;164256.44;;;1.93;81.62
45255;BME280;30989;52.078;21.014;2023-02-08T12:25:27;164269.75;;;1.99;82.85
45255;BME280;30989;52.078;21.014;2023-02-08T12:28:05;164284.41;;;2.04;82.95
45255;BME280;30989;52.078;21.014;2023-02-08T12:30:34;164272.44;;;2.00;81.46
45255;BME280;30989;52.078;21.014;2023-02-08T12:35:52;164259.13;;;1.94;81.07
45255;BME280;30989;52.078;21.014;2023-02-08T12:41:39;164220.50;;;1.80;79.44
45255;BME280;30989;52.078;21.014;2023-02-08T12:44:39;164273.75;;;2.00;80.78
45255;BME280;30989;52.078;21.014;2023-02-08T12:53:14;164830.78;;;4.12;80.77
45255;BME280;30989;52.078;21.014;2023-02-08T12:55:42;164948.16;;;4.57;79.45
45255;BME280;30989;52.078;21.014;2023-02-08T12:58:23;165058.91;;;4.99;78.11
45255;BME280;30989;52.078;21.014;2023-02-08T13:00:50;165143.03;;;5.31;76.60
45255;BME280;30989;52.078;21.014;2023-02-08T13:03:33;165140.34;;;5.30;72.61
45255;BME280;30989;52.078;21.014;2023-02-08T13:06:03;165094.91;;;5.13;72.44
45255;BME280;30989;52.078;21.014;2023-02-08T13:08:40;164981.50;;;4.70;66.38
45255;BME280;30989;52.078;21.014;2023-02-08T13:11:31;164794.78;;;3.99;67.38
45255;BME280;30989;52.078;21.014;2023-02-08T13:14:12;164588.16;;;3.20;69.25
45255;BME280;30989;52.078;21.014;2023-02-08T13:16:51;164460.22;;;2.71;71.28
45255;BME280;30989;52.078;21.014;2023-02-08T13:22:06;164397.63;;;2.47;72.60
45255;BME280;30989;52.078;21.014;2023-02-08T13:24:40;164380.31;;;2.41;73.70
45255;BME280;30989;52.078;21.014;2023-02-08T13:27:12;164393.63;;;2.46;75.16
45255;BME280;30989;52.078;21.014;2023-02-08T13:29:39;164388.28;;;2.44;73.63
45255;BME280;30989;52.078;21.014;2023-02-08T13:32:21;164396.28;;;2.47;73.75
45255;BME280;30989;52.078;21.014;2023-02-08T13:35:12;164412.28;;;2.53;73.86
45255;BME280;30989;52.078;21.014;2023-02-08T13:37:40;164416.28;;;2.54;75.10
45255;BME280;30989;52.078;21.014;2023-02-08T13:40:20;164461.56;;;2.72;74.96
45255;BME280;30989;52.078;21.014;2023-02-08T13:43:04;164468.22;;;2.74;72.45
45255;BME280;30989;52.078;21.014;2023-02-08T13:45:43;164462.91;;;2.72;74.69
45255;BME280;30989;52.078;21.014;2023-02-08T13:48:13;164445.56;;;2.66;73.44
45255;BME280;30989;52.078;21.014;2023-02-08T13:50:51;164462.91;;;2.72;72.53
45255;BME280;30989;52.078;21.014;2023-02-08T13:54:03;164453.56;;;2.69;72.46
45255;BME280;30989;52.078;21.014;2023-02-08T13:56:04;164537.50;;;3.01;73.12
45255;BME280;30989;52.078;21.014;2023-02-08T14:01:16;164700.13;;;3.63;74.05
45255;BME280;30989;52.078;21.014;2023-02-08T14:06:56;164784.09;;;3.95;70.54
45255;BME280;30989;52.078;21.014;2023-02-08T14:12:35;164726.78;;;3.73;67.89
45255;BME280;30989;52.078;21.014;2023-02-08T14:17:47;164470.88;;;2.75;69.93
45255;BME280;30989;52.078;21.014;2023-02-08T14:20:21;164364.31;;;2.35;70.57
45255;BME280;30989;52.078;21.014;2023-02-08T14:22:56;164273.75;;;2.00;70.51